createdAt,value
2023-07-26T00:02:39.361Z,4.80
2023-07-26T00:06:17.060Z,5.70
2023-07-26T00:09:55.016Z,6.20
2023-07-26T00:13:34.767Z,7.50
2023-07-26T00:17:28.988Z,6.50
2023-07-26T00:21:15.073Z,7.30
2023-07-26T00:24:44.061Z,8.10
2023-07-26T00:28:38.994Z,7.50
2023-07-26T00:32:05.630Z,7.90
2023-07-26T00:35:44.263Z,7.90
2023-07-26T00:39:21.547Z,7.40
2023-07-26T00:42:58.302Z,7.70
2023-07-26T00:46:36.050Z,6.80
2023-07-26T00:50:13.830Z,7.80
2023-07-26T00:54:12.357Z,6.60
2023-07-26T00:57:37.598Z,5.60
2023-07-26T01:01:15.597Z,5.40
2023-07-26T01:04:53.953Z,7.90
2023-07-26T01:09:08.478Z,8.60
2023-07-26T01:13:02.174Z,5.40
2023-07-26T01:16:31.112Z,5.60
2023-07-26T01:20:28.327Z,7.40
2023-07-26T01:24:14.093Z,6.60
2023-07-26T01:27:42.870Z,6.50
2023-07-26T01:31:39.661Z,6.60
2023-07-26T01:35:06.147Z,7.00
2023-07-26T01:38:44.796Z,7.00
2023-07-26T01:42:20.719Z,7.60
2023-07-26T01:45:57.612Z,6.70
2023-07-26T01:49:35.146Z,9.10
2023-07-26T01:53:32.877Z,8.90
2023-07-26T01:56:58.059Z,8.20
2023-07-26T02:00:54.552Z,8.60
2023-07-26T02:04:20.913Z,8.20
2023-07-26T02:07:58.235Z,8.40
2023-07-26T02:11:35.767Z,8.40
2023-07-26T02:15:13.487Z,7.80
2023-07-26T02:19:09.905Z,9.10
2023-07-26T02:22:37.252Z,6.80
2023-07-26T02:26:14.201Z,8.30
2023-07-26T02:29:51.979Z,8.70
2023-07-26T02:33:29.433Z,9.00
2023-07-26T02:37:10.575Z,8.80
2023-07-26T02:40:45.220Z,7.80
2023-07-26T02:44:22.581Z,9.40
2023-07-26T02:48:00.206Z,8.00
2023-07-26T02:51:37.873Z,7.90
2023-07-26T02:55:17.304Z,8.20
2023-07-26T02:58:53.351Z,9.00
2023-07-26T03:02:32.860Z,9.30
2023-07-26T03:06:08.710Z,8.40
2023-07-26T03:09:46.293Z,8.20
2023-07-26T03:13:24.465Z,8.50
2023-07-26T03:17:15.766Z,7.10
2023-07-26T03:21:05.855Z,7.60
2023-07-26T03:24:50.192Z,7.60
2023-07-26T03:28:36.942Z,7.30
2023-07-26T03:32:01.786Z,7.00
2023-07-26T03:35:58.401Z,6.40
2023-07-26T03:39:43.399Z,8.00
2023-07-26T03:43:08.840Z,7.50
2023-07-26T03:47:04.715Z,6.30
2023-07-26T03:50:29.253Z,6.50
2023-07-26T03:54:11.596Z,4.80
2023-07-26T03:57:47.461Z,5.30
2023-07-26T04:01:22.220Z,5.20
2023-07-26T04:05:19.126Z,7.10
2023-07-26T04:08:43.702Z,4.50
2023-07-26T04:12:22.420Z,4.70
2023-07-26T04:15:59.073Z,5.40
2023-07-26T04:19:56.953Z,6.00
2023-07-26T04:23:43.694Z,5.70
2023-07-26T04:27:09.451Z,4.00
2023-07-26T04:30:50.345Z,3.70
2023-07-26T04:39:26.885Z,4.60
2023-07-26T04:42:51.321Z,4.60
2023-07-26T04:46:29.182Z,4.20
2023-07-26T04:50:08.220Z,3.70
2023-07-26T04:53:44.415Z,3.60
2023-07-26T04:57:22.014Z,4.20
2023-07-26T05:01:00.105Z,3.40
2023-07-26T05:04:57.178Z,4.70
2023-07-26T05:08:40.873Z,4.40
2023-07-26T05:12:24.724Z,4.70
2023-07-26T05:15:49.820Z,5.00
2023-07-26T05:19:27.258Z,4.40
2023-07-26T05:23:04.963Z,5.40
2023-07-26T05:26:44.534Z,5.00
2023-07-26T05:30:41.715Z,4.00
2023-07-26T05:34:25.403Z,3.50
2023-07-26T05:37:51.729Z,4.50
2023-07-26T05:41:32.683Z,4.10
2023-07-26T05:45:07.765Z,3.80
2023-07-26T05:48:44.770Z,3.90
2023-07-26T05:52:21.356Z,3.30
2023-07-26T05:55:58.794Z,7.10
2023-07-26T05:59:36.576Z,6.80
2023-07-26T06:03:34.405Z,5.80
2023-07-26T06:06:59.673Z,6.50
2023-07-26T06:10:37.161Z,7.00
2023-07-26T06:14:15.137Z,5.50
2023-07-26T06:17:52.629Z,7.50
2023-07-26T06:21:50.813Z,5.30
2023-07-26T06:25:15.626Z,8.40
2023-07-26T06:29:15.529Z,9.00
2023-07-26T06:32:42.290Z,10.10
2023-07-26T06:36:19.724Z,9.30
2023-07-26T06:39:57.180Z,8.70
2023-07-26T06:43:35.520Z,9.30
2023-07-26T06:47:33.160Z,6.60
2023-07-26T06:50:59.754Z,6.40
2023-07-26T06:54:37.693Z,6.90
2023-07-26T06:58:13.699Z,8.30
2023-07-26T07:01:51.629Z,6.30
2023-07-26T07:05:30.828Z,6.80
2023-07-26T07:09:06.634Z,6.30
2023-07-26T07:12:45.560Z,7.10
2023-07-26T07:16:24.746Z,8.40
2023-07-26T07:20:18.589Z,7.90
2023-07-26T07:23:47.631Z,7.10
2023-07-26T07:27:47.707Z,6.80
2023-07-26T07:31:15.093Z,6.00
2023-07-26T07:35:10.543Z,5.80
2023-07-26T07:38:35.732Z,4.80
2023-07-26T07:42:32.529Z,4.20
2023-07-26T07:45:57.596Z,3.90
2023-07-26T07:49:35.180Z,4.00
2023-07-26T07:53:14.149Z,3.60
2023-07-26T07:56:50.723Z,3.40
2023-07-26T08:00:28.481Z,3.80
2023-07-26T08:04:06.083Z,2.60
2023-07-26T08:08:02.908Z,3.90
2023-07-26T08:11:47.943Z,3.40
2023-07-26T08:15:14.553Z,3.00
2023-07-26T08:18:54.708Z,3.30
2023-07-26T08:22:48.424Z,2.80
2023-07-26T08:26:32.795Z,3.70
2023-07-26T08:29:57.813Z,3.60
2023-07-26T08:33:54.446Z,2.90
2023-07-26T08:37:20.126Z,3.30
2023-07-26T08:41:16.300Z,4.10
2023-07-26T08:44:43.297Z,3.20
2023-07-26T08:48:38.419Z,3.10
2023-07-26T08:52:24.705Z,2.20
2023-07-26T08:56:09.304Z,1.90
2023-07-26T08:59:53.254Z,2.20
2023-07-26T09:03:19.206Z,1.60
2023-07-26T09:06:56.182Z,2.60
2023-07-26T09:10:52.513Z,2.40
2023-07-26T09:14:37.800Z,2.40
2023-07-26T09:18:04.992Z,2.20
2023-07-26T09:22:04.629Z,2.30
2023-07-26T09:25:35.297Z,2.90
2023-07-26T09:29:12.849Z,2.80
2023-07-26T09:32:45.233Z,3.30
2023-07-26T09:36:49.757Z,2.50
2023-07-26T09:40:21.454Z,2.80
2023-07-26T09:43:59.225Z,2.40
2023-07-26T09:47:40.586Z,2.70
2023-07-26T09:54:47.412Z,2.80
2023-07-26T09:58:26.727Z,2.70
2023-07-26T10:02:21.665Z,2.20
2023-07-26T10:05:49.534Z,2.40
2023-07-26T10:09:45.504Z,2.30
2023-07-26T10:13:11.558Z,2.20
2023-07-26T10:16:52.408Z,1.70
2023-07-26T10:20:47.038Z,1.90
2023-07-26T10:24:17.188Z,1.50
2023-07-26T10:27:50.653Z,1.50
2023-07-26T10:31:28.316Z,1.70
2023-07-26T10:35:06.716Z,1.40
2023-07-26T10:39:05.844Z,1.60
2023-07-26T10:42:31.085Z,1.30
2023-07-26T10:46:11.794Z,1.40
2023-07-26T10:50:06.644Z,1.30
2023-07-26T10:53:38.072Z,1.00
2023-07-26T10:57:22.079Z,0.90
2023-07-26T11:00:49.047Z,1.10
2023-07-26T11:04:46.938Z,1.00
2023-07-26T11:08:12.391Z,0.70
2023-07-26T11:12:03.693Z,1.50
2023-07-26T11:16:11.582Z,1.30
2023-07-26T11:19:47.544Z,1.00
2023-07-26T11:23:19.768Z,1.10
2023-07-26T11:26:49.821Z,1.20
2023-07-26T11:30:27.724Z,1.30
2023-07-26T11:34:18.513Z,1.60
2023-07-26T11:37:56.046Z,1.10
2023-07-26T11:41:25.483Z,1.30
2023-07-26T11:45:04.986Z,1.30
2023-07-26T11:48:38.044Z,2.00
2023-07-26T11:52:15.932Z,2.20
2023-07-26T11:55:53.190Z,2.30
2023-07-26T11:59:31.279Z,2.60
2023-07-26T12:03:27.801Z,2.10
2023-07-26T12:06:53.358Z,1.40
2023-07-26T12:10:49.714Z,1.70
2023-07-26T12:14:21.066Z,2.10
2023-07-26T12:18:04.101Z,1.70
2023-07-26T12:21:31.209Z,2.20
2023-07-26T12:25:38.597Z,1.70
2023-07-26T12:29:28.988Z,1.60
2023-07-26T12:33:14.039Z,1.90
2023-07-26T12:36:48.318Z,2.10
2023-07-26T12:40:19.639Z,1.70
2023-07-26T12:43:58.682Z,1.30
2023-07-26T12:47:53.460Z,1.20
2023-07-26T12:51:18.426Z,1.20
2023-07-26T12:55:14.981Z,0.80
2023-07-26T12:59:07.009Z,1.30
2023-07-26T13:02:52.642Z,1.00
2023-07-26T13:06:17.609Z,1.30
2023-07-26T13:10:14.160Z,1.60
2023-07-26T13:13:39.607Z,2.00
2023-07-26T13:17:17.131Z,1.80
2023-07-26T13:20:55.205Z,1.80
2023-07-26T13:24:32.753Z,1.70
2023-07-26T13:28:10.156Z,1.50
2023-07-26T13:31:47.799Z,1.60
2023-07-26T13:35:44.358Z,1.70
2023-07-26T13:39:28.099Z,1.20
2023-07-26T13:43:13.672Z,1.40
2023-07-26T13:46:38.917Z,1.50
2023-07-26T13:50:16.109Z,1.90
2023-07-26T13:54:12.723Z,1.50
2023-07-26T13:57:56.593Z,1.60
2023-07-26T14:01:40.366Z,1.20
2023-07-26T14:05:05.641Z,1.60
2023-07-26T14:09:01.664Z,1.80
2023-07-26T14:12:26.574Z,1.50
2023-07-26T14:16:20.273Z,1.20
2023-07-26T14:19:48.628Z,1.40
2023-07-26T14:23:44.986Z,1.90
2023-07-26T14:27:31.879Z,1.40
2023-07-26T14:30:57.379Z,1.70
2023-07-26T14:34:35.156Z,1.60
2023-07-26T14:38:32.738Z,1.80
2023-07-26T14:42:17.932Z,1.80
2023-07-26T14:45:44.632Z,1.40
2023-07-26T14:49:23.940Z,1.40
2023-07-26T14:53:00.000Z,1.70
2023-07-26T14:56:39.880Z,1.90
2023-07-26T15:00:14.399Z,1.60
2023-07-26T15:04:12.699Z,1.70
2023-07-26T15:07:58.085Z,1.20
2023-07-26T15:11:25.123Z,1.70
2023-07-26T15:15:01.916Z,2.00
2023-07-26T15:18:39.517Z,1.70
2023-07-26T15:22:20.569Z,1.90
2023-07-26T15:26:13.670Z,1.70
2023-07-26T15:29:38.742Z,1.80
2023-07-26T15:33:16.620Z,1.50
2023-07-26T15:37:12.860Z,2.00
2023-07-26T15:44:15.615Z,1.70
2023-07-26T15:48:13.255Z,1.30
2023-07-26T15:51:40.073Z,2.00
2023-07-26T15:55:16.416Z,1.00
2023-07-26T15:58:54.099Z,1.50
2023-07-26T16:03:02.829Z,1.20
2023-07-26T16:06:21.542Z,1.60
2023-07-26T16:09:56.908Z,1.70
2023-07-26T16:13:36.189Z,1.40
2023-07-26T16:17:13.705Z,2.10
2023-07-26T16:24:37.603Z,1.50
2023-07-26T16:28:16.176Z,2.00
2023-07-26T16:32:13.755Z,2.10
2023-07-26T16:35:39.367Z,2.30
2023-07-26T16:39:20.955Z,2.00
2023-07-26T16:42:56.673Z,2.00
2023-07-26T16:47:08.050Z,1.70
2023-07-26T16:50:37.955Z,1.90
2023-07-26T16:54:14.711Z,1.90
2023-07-26T16:57:52.474Z,1.60
2023-07-26T17:01:49.103Z,2.30
2023-07-26T17:05:14.527Z,2.10
2023-07-26T17:08:52.082Z,2.10
2023-07-26T17:12:32.372Z,2.40
2023-07-26T17:16:09.872Z,2.50
2023-07-26T17:19:45.553Z,2.10
2023-07-26T17:23:42.572Z,2.20
2023-07-26T17:27:07.735Z,2.10
2023-07-26T17:31:04.591Z,1.90
2023-07-26T17:34:50.511Z,1.90
2023-07-26T17:38:15.574Z,2.50
2023-07-26T17:42:12.139Z,2.10
2023-07-26T17:45:37.450Z,2.00
2023-07-26T17:49:34.029Z,2.00
2023-07-26T17:53:00.566Z,2.00
2023-07-26T17:56:36.662Z,2.20
2023-07-26T18:00:15.575Z,2.70
2023-07-26T18:04:10.934Z,2.00
2023-07-26T18:07:55.078Z,1.90
2023-07-26T18:11:21.367Z,1.60
2023-07-26T18:14:57.881Z,1.50
2023-07-26T18:18:35.820Z,1.70
2023-07-26T18:22:13.061Z,1.60
2023-07-26T18:26:09.726Z,1.60
2023-07-26T18:29:35.125Z,3.20
2023-07-26T18:33:12.978Z,5.40
2023-07-26T18:36:51.966Z,6.60
2023-07-26T18:40:27.988Z,7.00
2023-07-26T18:44:05.386Z,5.30
2023-07-26T18:47:43.035Z,7.30
2023-07-26T18:51:20.854Z,5.70
2023-07-26T18:54:58.353Z,6.70
2023-07-26T18:58:36.146Z,6.30
2023-07-26T19:02:32.746Z,6.60
2023-07-26T19:05:58.405Z,5.10
2023-07-26T19:09:35.793Z,5.30
2023-07-26T19:13:13.370Z,5.00
2023-07-26T19:16:50.980Z,4.60
2023-07-26T19:20:28.770Z,4.20
2023-07-26T19:24:25.198Z,4.20
2023-07-26T19:28:09.789Z,4.20
2023-07-26T19:31:34.672Z,4.60
2023-07-26T19:35:13.495Z,4.10
2023-07-26T19:38:49.899Z,4.10
2023-07-26T19:42:27.676Z,3.80
2023-07-26T19:46:11.935Z,3.80
2023-07-26T19:50:02.444Z,3.60
2023-07-26T19:53:47.226Z,3.80
2023-07-26T19:57:12.300Z,3.20
2023-07-26T20:00:49.883Z,2.90
2023-07-26T20:04:27.965Z,2.80
2023-07-26T20:08:05.328Z,3.70
2023-07-26T20:11:43.569Z,3.70
2023-07-26T20:15:21.556Z,2.60
2023-07-26T20:18:58.603Z,3.90
2023-07-26T20:22:55.145Z,2.80
2023-07-26T20:26:20.462Z,2.70
2023-07-26T20:29:59.411Z,3.10
2023-07-26T20:33:36.472Z,3.10
2023-07-26T20:37:13.701Z,3.60
2023-07-26T20:40:51.489Z,2.60
2023-07-26T20:44:29.119Z,3.70
2023-07-26T20:48:07.182Z,3.70
2023-07-26T20:51:46.141Z,3.40
2023-07-26T20:55:40.711Z,3.80
2023-07-26T20:59:05.754Z,3.60
2023-07-26T21:02:43.464Z,3.00
2023-07-26T21:06:21.155Z,2.70
2023-07-26T21:09:58.869Z,3.60
2023-07-26T21:13:36.534Z,3.50
2023-07-26T21:17:14.171Z,4.40
2023-07-26T21:20:51.995Z,4.30
2023-07-26T21:24:29.546Z,4.50
2023-07-26T21:28:07.122Z,4.00
2023-07-26T21:31:44.773Z,4.20
2023-07-26T21:35:22.380Z,3.60
2023-07-26T21:39:00.344Z,4.10
2023-07-26T21:42:37.800Z,5.20
2023-07-26T21:46:15.514Z,4.70
2023-07-26T21:49:53.110Z,4.60
2023-07-26T21:53:30.949Z,4.10
2023-07-26T21:57:08.514Z,4.20
2023-07-26T22:00:47.295Z,4.00
2023-07-26T22:04:24.071Z,3.50
2023-07-26T22:08:01.683Z,3.40
2023-07-26T22:11:40.874Z,2.90
2023-07-26T22:15:17.193Z,3.00
2023-07-26T22:18:55.126Z,2.90
2023-07-26T22:22:51.138Z,2.40
2023-07-26T22:26:18.044Z,2.30
2023-07-26T22:29:54.403Z,2.00
2023-07-26T22:33:31.869Z,2.50
2023-07-26T22:37:09.938Z,2.40
2023-07-26T22:40:47.077Z,2.40
2023-07-26T22:44:24.865Z,2.20
2023-07-26T22:48:02.405Z,2.60
2023-07-26T22:51:39.994Z,2.50
2023-07-26T22:55:19.570Z,2.70
2023-07-26T22:58:55.461Z,3.20
2023-07-26T23:02:33.051Z,3.00
2023-07-26T23:06:10.808Z,3.00
2023-07-26T23:09:48.450Z,3.00
2023-07-26T23:13:30.258Z,3.60
2023-07-26T23:17:03.801Z,3.90
2023-07-26T23:20:41.412Z,5.00
2023-07-26T23:24:19.144Z,5.00
2023-07-26T23:27:57.022Z,4.90
2023-07-26T23:31:34.507Z,4.30
2023-07-26T23:35:12.132Z,4.60
2023-07-26T23:39:08.713Z,4.30
2023-07-26T23:42:33.813Z,3.50
2023-07-26T23:46:11.627Z,4.40
2023-07-26T23:49:49.267Z,4.90
2023-07-26T23:53:26.664Z,3.40
2023-07-26T23:57:04.693Z,3.60
